createdAt,value
2018-02-19T00:00:42.133Z,102326.23
2018-02-19T00:03:08.657Z,102326.65
2018-02-19T00:05:34.818Z,102326.22
2018-02-19T00:08:01.036Z,102323.16
2018-02-19T00:10:27.228Z,102329.72
2018-02-19T00:12:53.391Z,102321.44
2018-02-19T00:15:19.590Z,102316.62
2018-02-19T00:17:46.110Z,102318.81
2018-02-19T00:20:12.308Z,102321.41
2018-02-19T00:22:38.492Z,102306.12
2018-02-19T00:25:04.997Z,102309.17
2018-02-19T00:27:31.532Z,102303.94
2018-02-19T00:29:57.775Z,102294.78
2018-02-19T00:32:23.936Z,102294.31
2018-02-19T00:34:50.088Z,102294.33
2018-02-19T00:37:16.542Z,102291.27
2018-02-19T00:39:42.713Z,102290.83
2018-02-19T00:42:09.210Z,102282.98
2018-02-19T00:44:35.385Z,102285.13
2018-02-19T00:47:01.868Z,102275.05
2018-02-19T00:49:28.144Z,102275.48
2018-02-19T00:51:54.314Z,102271.60
2018-02-19T00:54:20.552Z,102268.06
2018-02-19T00:56:46.722Z,102266.76
2018-02-19T00:59:12.966Z,102269.36
2018-02-19T01:01:39.156Z,102267.20
2018-02-19T01:04:05.337Z,102266.31
2018-02-19T01:06:31.901Z,102264.12
2018-02-19T01:08:58.106Z,102257.56
2018-02-19T01:11:24.288Z,102262.82
2018-02-19T01:13:50.537Z,102257.58
2018-02-19T01:16:16.713Z,102258.89
2018-02-19T01:18:42.867Z,102258.45
2018-02-19T01:21:09.371Z,102255.40
2018-02-19T01:23:35.562Z,102249.70
2018-02-19T01:26:02.029Z,102249.29
2018-02-19T01:28:28.276Z,102252.77
2018-02-19T01:30:54.446Z,102247.52
2018-02-19T01:33:20.689Z,102246.65
2018-02-19T01:35:46.905Z,102242.28
2018-02-19T01:38:13.064Z,102243.60
2018-02-19T01:40:39.299Z,102233.98
2018-02-19T01:43:05.728Z,102233.10
2018-02-19T01:45:31.894Z,102236.59
2018-02-19T01:47:58.133Z,102230.91
2018-02-19T01:50:24.628Z,102224.81
2018-02-19T01:52:50.810Z,102226.97
2018-02-19T01:55:17.034Z,102227.44
2018-02-19T01:57:43.508Z,102224.36
2018-02-19T02:00:09.724Z,102221.30
2018-02-19T02:02:35.945Z,102214.76
2018-02-19T02:05:02.132Z,102206.88
2018-02-19T02:07:28.306Z,102208.63
2018-02-19T02:09:54.528Z,102202.97
2018-02-19T02:12:20.688Z,102210.38
2018-02-19T02:14:46.844Z,102202.52
2018-02-19T02:17:13.306Z,102205.14
2018-02-19T02:19:39.772Z,102189.85
2018-02-19T02:22:05.926Z,102194.66
2018-02-19T02:24:32.158Z,102193.78
2018-02-19T02:26:58.654Z,102186.78
2018-02-19T02:29:25.085Z,102186.80
2018-02-19T02:31:51.354Z,102180.25
2018-02-19T02:34:17.564Z,102179.36
2018-02-19T02:36:43.801Z,102177.62
2018-02-19T02:39:09.968Z,102180.25
2018-02-19T02:41:36.137Z,102174.12
2018-02-19T02:44:02.343Z,102181.11
2018-02-19T02:46:28.513Z,102181.98
2018-02-19T02:48:54.750Z,102174.56
2018-02-19T02:51:20.932Z,102175.87
2018-02-19T02:53:47.340Z,102175.00
2018-02-19T02:56:13.610Z,102173.70
2018-02-19T02:58:39.770Z,102176.75
2018-02-19T03:01:05.968Z,102173.67
2018-02-19T03:03:32.222Z,102174.55
2018-02-19T03:05:58.415Z,102172.37
2018-02-19T03:08:24.945Z,102178.06
2018-02-19T03:10:51.481Z,102172.80
2018-02-19T03:13:17.719Z,102173.24
2018-02-19T03:15:44.244Z,102172.81
2018-02-19T03:18:10.430Z,102167.99
2018-02-19T03:20:36.662Z,102170.62
2018-02-19T03:23:02.850Z,102172.83
2018-02-19T03:25:29.035Z,102169.77
2018-02-19T03:27:55.281Z,102168.89
2018-02-19T03:30:21.493Z,102163.22
2018-02-19T03:32:47.660Z,102157.97
2018-02-19T03:35:13.874Z,102152.27
2018-02-19T03:37:40.052Z,102147.49
2018-02-19T03:40:06.225Z,102146.59
2018-02-19T03:42:32.462Z,102145.73
2018-02-19T03:44:58.632Z,102143.53
2018-02-19T03:47:24.805Z,102136.11
2018-02-19T03:49:51.006Z,102139.16
2018-02-19T03:52:17.189Z,102145.29
2018-02-19T03:54:43.361Z,102141.81
2018-02-19T03:57:09.601Z,102143.98
2018-02-19T03:59:36.044Z,102142.22
2018-02-19T04:02:02.474Z,102137.44
2018-02-19T04:04:28.685Z,102135.26
2018-02-19T04:06:54.888Z,102133.50
2018-02-19T04:09:21.067Z,102134.81
2018-02-19T04:11:47.594Z,102135.25
2018-02-19T04:14:13.755Z,102133.06
2018-02-19T04:16:39.947Z,102128.27
2018-02-19T04:19:06.485Z,102124.77
2018-02-19T04:21:32.706Z,102124.78
2018-02-19T04:23:58.886Z,102123.44
2018-02-19T04:26:25.072Z,102122.13
2018-02-19T04:28:51.360Z,102120.39
2018-02-19T04:31:17.829Z,102119.95
2018-02-19T04:33:44.260Z,102124.75
2018-02-19T04:36:10.492Z,102122.56
2018-02-19T04:38:36.656Z,102120.84
2018-02-19T04:41:02.830Z,102121.26
2018-02-19T04:43:29.091Z,102118.20
2018-02-19T04:45:55.319Z,102114.29
2018-02-19T04:48:21.512Z,102117.32
2018-02-19T04:50:47.698Z,102118.22
2018-02-19T04:53:13.879Z,102122.14
2018-02-19T04:55:40.083Z,102113.83
2018-02-19T04:58:06.278Z,102118.63
2018-02-19T05:00:32.515Z,102115.59
2018-02-19T05:02:58.697Z,102119.95
2018-02-19T05:05:24.857Z,102112.98
2018-02-19T05:07:51.095Z,102118.64
2018-02-19T05:10:17.266Z,102125.64
2018-02-19T05:12:43.451Z,102122.14
2018-02-19T05:15:09.651Z,102120.84
2018-02-19T05:17:35.881Z,102113.84
2018-02-19T05:20:02.393Z,102115.59
2018-02-19T05:22:28.591Z,102115.58
2018-02-19T05:24:54.756Z,102115.16
2018-02-19T05:27:21.888Z,102121.25
2018-02-19T05:29:48.139Z,102122.59
2018-02-19T05:32:14.657Z,102117.34
2018-02-19T05:34:40.846Z,102118.20
2018-02-19T05:37:07.046Z,102116.88
2018-02-19T05:39:33.254Z,102116.04
2018-02-19T05:41:59.462Z,102114.73
2018-02-19T05:44:25.624Z,102117.77
2018-02-19T05:46:51.791Z,102118.20
2018-02-19T05:49:18.013Z,102116.05
2018-02-19T05:51:44.197Z,102115.16
2018-02-19T05:54:10.389Z,102117.34
2018-02-19T05:56:36.573Z,102110.34
2018-02-19T05:59:02.747Z,102102.92
2018-02-19T06:01:28.969Z,102109.48
2018-02-19T06:03:55.118Z,102113.86
2018-02-19T06:06:21.336Z,102110.35
2018-02-19T06:08:47.545Z,102115.17
2018-02-19T06:11:13.791Z,102116.04
2018-02-19T06:13:39.976Z,102109.92
2018-02-19T06:16:06.822Z,102115.15
2018-02-19T06:18:33.040Z,102109.48
2018-02-19T06:20:59.203Z,102116.46
2018-02-19T06:23:25.369Z,102119.97
2018-02-19T06:25:51.582Z,102114.29
2018-02-19T06:28:17.769Z,102113.84
2018-02-19T06:30:44.218Z,102113.84
2018-02-19T06:33:10.419Z,102116.91
2018-02-19T06:35:36.596Z,102115.16
2018-02-19T06:38:02.817Z,102118.66
2018-02-19T06:40:29.045Z,102116.90
2018-02-19T06:42:55.252Z,102114.28
2018-02-19T06:45:21.709Z,102114.73
2018-02-19T06:47:48.244Z,102111.23
2018-02-19T06:50:14.524Z,102118.63
2018-02-19T06:52:40.769Z,102120.41
2018-02-19T06:55:06.985Z,102118.22
2018-02-19T06:57:33.183Z,102123.03
2018-02-19T06:59:59.438Z,102125.19
2018-02-19T07:02:25.918Z,102128.25
2018-02-19T07:04:52.100Z,102126.08
2018-02-19T07:07:18.337Z,102116.46
2018-02-19T07:09:44.556Z,102120.38
2018-02-19T07:12:10.819Z,102123.47
2018-02-19T07:14:37.020Z,102122.16
2018-02-19T07:17:03.493Z,102122.14
2018-02-19T07:19:29.732Z,102121.70
2018-02-19T07:21:55.902Z,102123.88
2018-02-19T07:24:22.097Z,102122.15
2018-02-19T07:26:48.386Z,102119.95
2018-02-19T07:29:14.576Z,102126.09
2018-02-19T07:31:40.809Z,102129.14
2018-02-19T07:34:07.050Z,102122.59
2018-02-19T07:36:33.235Z,102126.06
2018-02-19T07:38:59.417Z,102122.58
2018-02-19T07:41:25.673Z,102116.05
2018-02-19T07:43:51.880Z,102118.65
2018-02-19T07:46:18.045Z,102114.28
2018-02-19T07:48:44.247Z,102115.17
2018-02-19T07:51:10.504Z,102109.90
2018-02-19T07:53:36.701Z,102107.71
2018-02-19T07:56:03.145Z,102107.72
2018-02-19T07:58:29.464Z,102104.66
2018-02-19T08:00:55.639Z,102102.48
2018-02-19T08:03:21.818Z,102104.66
2018-02-19T08:05:48.040Z,102097.66
2018-02-19T08:08:14.231Z,102098.55
2018-02-19T08:10:40.461Z,102104.22
2018-02-19T08:13:06.645Z,102101.16
2018-02-19T08:15:32.874Z,102104.22
2018-02-19T08:17:59.096Z,102098.53
2018-02-19T08:20:25.415Z,102101.58
2018-02-19T08:22:51.643Z,102092.00
2018-02-19T08:25:17.832Z,102094.60
2018-02-19T08:27:43.990Z,102096.78
2018-02-19T08:30:10.230Z,102094.59
2018-02-19T08:32:36.553Z,102098.11
2018-02-19T08:35:03.105Z,102096.80
2018-02-19T08:37:29.327Z,102088.48
2018-02-19T08:39:55.575Z,102090.64
2018-02-19T08:42:21.768Z,102091.95
2018-02-19T08:44:47.968Z,102091.55
2018-02-19T08:47:14.270Z,102093.77
2018-02-19T08:49:40.472Z,102089.39
2018-02-19T08:52:06.692Z,102089.79
2018-02-19T08:54:32.937Z,102085.89
2018-02-19T08:56:59.095Z,102087.63
2018-02-19T08:59:25.268Z,102081.96
2018-02-19T09:01:51.528Z,102088.50
2018-02-19T09:04:17.765Z,102088.52
2018-02-19T09:06:43.986Z,102080.17
2018-02-19T09:09:10.187Z,102081.06
2018-02-19T09:11:36.410Z,102085.45
2018-02-19T09:14:02.608Z,102081.52
2018-02-19T09:16:29.086Z,102083.26
2018-02-19T09:18:55.293Z,102074.95
2018-02-19T09:21:21.504Z,102067.07
2018-02-19T09:23:48.073Z,102075.81
2018-02-19T09:26:14.261Z,102075.83
2018-02-19T09:28:40.858Z,102068.83
2018-02-19T09:31:07.051Z,102066.63
2018-02-19T09:33:33.280Z,102064.88
2018-02-19T09:35:59.534Z,102067.50
2018-02-19T09:38:25.701Z,102061.39
2018-02-19T09:40:51.880Z,102068.80
2018-02-19T09:43:18.097Z,102060.05
2018-02-19T09:45:44.532Z,102061.78
2018-02-19T09:48:11.070Z,102060.90
2018-02-19T09:50:37.219Z,102063.50
2018-02-19T09:53:03.481Z,102062.62
2018-02-19T09:55:29.643Z,102061.73
2018-02-19T09:57:55.836Z,102062.17
2018-02-19T10:00:22.081Z,102067.84
2018-02-19T10:02:48.289Z,102063.06
2018-02-19T10:05:14.500Z,102059.57
2018-02-19T10:07:40.716Z,102054.32
2018-02-19T10:10:06.894Z,102057.37
2018-02-19T10:12:33.108Z,102057.39
2018-02-19T10:14:59.324Z,102061.29
2018-02-19T10:17:25.524Z,102065.23
2018-02-19T10:19:51.745Z,102060.41
2018-02-19T10:22:17.908Z,102061.71
2018-02-19T10:24:44.104Z,102063.02
2018-02-19T10:27:10.617Z,102062.59
2018-02-19T10:29:36.813Z,102067.83
2018-02-19T10:32:03.023Z,102059.09
2018-02-19T10:34:29.342Z,102056.03
2018-02-19T10:36:55.529Z,102060.41
2018-02-19T10:39:21.718Z,102058.20
2018-02-19T10:41:47.958Z,102053.41
2018-02-19T10:44:14.137Z,102055.13
2018-02-19T10:46:40.316Z,102059.48
2018-02-19T10:49:06.538Z,102057.73
2018-02-19T10:51:33.002Z,102045.48
2018-02-19T10:53:59.175Z,102048.99
2018-02-19T10:56:25.385Z,102048.97
2018-02-19T10:58:51.600Z,102038.90
2018-02-19T11:01:17.821Z,102034.98
2018-02-19T11:03:45.641Z,102039.75
2018-02-19T11:06:12.207Z,102031.86
2018-02-19T11:08:38.395Z,102028.36
2018-02-19T11:11:04.620Z,102030.94
2018-02-19T11:13:30.788Z,102034.88
2018-02-19T11:15:57.007Z,102028.73
2018-02-19T11:18:23.191Z,102028.73
2018-02-19T11:20:49.372Z,102021.73
2018-02-19T11:23:15.616Z,102012.11
2018-02-19T11:25:41.791Z,102022.55
2018-02-19T11:28:08.006Z,102023.88
2018-02-19T11:30:34.204Z,102022.55
2018-02-19T11:33:00.374Z,102019.47
2018-02-19T11:35:26.848Z,102020.77
2018-02-19T11:37:55.991Z,102018.58
2018-02-19T11:40:22.247Z,102011.62
2018-02-19T11:42:48.418Z,102005.46
2018-02-19T11:45:14.609Z,102008.98
2018-02-19T11:47:40.857Z,102007.23
2018-02-19T11:50:07.039Z,102000.64
2018-02-19T11:52:33.211Z,101998.86
2018-02-19T11:54:59.410Z,101998.42
2018-02-19T11:57:25.591Z,101998.38
2018-02-19T11:59:51.844Z,102000.56
2018-02-19T12:02:18.077Z,102003.16
2018-02-19T12:04:44.262Z,102002.27
2018-02-19T12:07:10.481Z,101992.60
2018-02-19T12:09:36.677Z,101995.64
2018-02-19T12:12:02.911Z,101986.41
2018-02-19T12:14:29.082Z,101988.16
2018-02-19T12:16:55.298Z,101989.45
2018-02-19T12:19:21.494Z,101985.92
2018-02-19T12:21:47.670Z,101985.91
2018-02-19T12:24:14.149Z,101990.25
2018-02-19T12:26:40.331Z,101989.37
2018-02-19T12:29:06.504Z,101990.69
2018-02-19T12:31:32.964Z,101992.83
2018-02-19T12:33:59.232Z,101988.88
2018-02-19T12:36:25.454Z,101990.16
2018-02-19T12:38:51.679Z,101983.97
2018-02-19T12:41:18.189Z,101976.95
2018-02-19T12:43:44.414Z,101977.36
2018-02-19T12:46:10.606Z,101975.16
2018-02-19T12:48:36.785Z,101975.11
2018-02-19T12:51:03.007Z,101977.28
2018-02-19T12:53:36.320Z,101978.12
2018-02-19T12:56:02.512Z,101970.22
2018-02-19T12:58:28.704Z,101966.24
2018-02-19T13:00:55.279Z,101968.84
2018-02-19T13:03:21.452Z,101968.38
2018-02-19T13:05:47.636Z,101968.33
2018-02-19T13:08:13.863Z,101960.78
2018-02-19T13:10:40.313Z,101953.33
2018-02-19T13:13:06.546Z,101964.27
2018-02-19T13:15:32.739Z,101958.98
2018-02-19T13:17:58.966Z,101961.14
2018-02-19T13:20:25.160Z,101960.21
2018-02-19T13:22:51.337Z,101957.56
2018-02-19T13:25:17.574Z,101961.12
2018-02-19T13:27:43.753Z,101954.61
2018-02-19T13:30:09.966Z,101953.69
2018-02-19T13:32:36.185Z,101951.05
2018-02-19T13:35:02.458Z,101951.87
2018-02-19T13:37:28.719Z,101952.73
2018-02-19T13:39:54.956Z,101956.23
2018-02-19T13:42:21.176Z,101957.52
2018-02-19T13:44:47.386Z,101952.23
2018-02-19T13:47:13.572Z,101942.56
2018-02-19T13:49:39.836Z,101947.33
2018-02-19T13:52:06.050Z,101953.44
2018-02-19T13:54:32.243Z,101948.97
2018-02-19T13:56:58.452Z,101955.07
2018-02-19T13:59:25.547Z,101951.90
2018-02-19T14:01:51.741Z,101950.50
2018-02-19T14:04:17.959Z,101950.47
2018-02-19T14:06:44.165Z,101953.48
2018-02-19T14:09:10.355Z,101947.77
2018-02-19T14:11:36.596Z,101958.74
2018-02-19T14:14:02.796Z,101951.71
2018-02-19T14:16:29.054Z,101951.30
2018-02-19T14:18:55.256Z,101953.53
2018-02-19T14:21:21.474Z,101951.81
2018-02-19T14:23:47.684Z,101950.06
2018-02-19T14:26:13.862Z,101954.41
2018-02-19T14:28:40.077Z,101951.31
2018-02-19T14:31:06.279Z,101947.41
2018-02-19T14:33:32.544Z,101946.58
2018-02-19T14:35:59.111Z,101943.11
2018-02-19T14:38:25.549Z,101948.03
2018-02-19T14:40:51.778Z,101950.28
2018-02-19T14:43:18.708Z,101954.36
2018-02-19T14:45:45.238Z,101957.09
2018-02-19T14:48:11.517Z,101954.98
2018-02-19T14:50:47.635Z,101959.02
2018-02-19T14:53:14.996Z,101948.61
2018-02-19T14:55:41.362Z,101949.99
2018-02-19T14:58:07.611Z,101950.45
2018-02-19T15:00:33.837Z,101947.01
2018-02-19T15:03:00.325Z,101944.87
2018-02-19T15:05:26.515Z,101943.16
2018-02-19T15:07:52.711Z,101940.58
2018-02-19T15:10:19.167Z,101941.47
2018-02-19T15:12:45.341Z,101944.59
2018-02-19T15:15:11.598Z,101946.39
2018-02-19T15:17:37.792Z,101946.38
2018-02-19T15:20:03.997Z,101951.63
2018-02-19T15:22:30.263Z,101950.29
2018-02-19T15:24:56.768Z,101948.13
2018-02-19T15:27:23.304Z,101947.30
2018-02-19T15:29:49.517Z,101946.87
2018-02-19T15:32:15.725Z,101945.13
2018-02-19T15:34:41.953Z,101941.23
2018-02-19T15:37:08.193Z,101937.33
2018-02-19T15:39:34.447Z,101937.78
2018-02-19T15:42:00.980Z,101936.52
2018-02-19T15:44:27.421Z,101938.73
2018-02-19T15:46:53.623Z,101932.61
2018-02-19T15:49:19.803Z,101937.89
2018-02-19T15:51:46.001Z,101933.08
2018-02-19T15:54:12.165Z,101930.48
2018-02-19T15:56:38.409Z,101928.33
2018-02-19T15:59:04.609Z,101931.43
2018-02-19T16:01:30.819Z,101934.06
2018-02-19T16:03:57.343Z,101931.46
2018-02-19T16:06:23.533Z,101938.04
2018-02-19T16:08:49.767Z,101938.05
2018-02-19T16:11:15.969Z,101935.43
2018-02-19T16:13:42.163Z,101936.34
2018-02-19T16:16:08.694Z,101941.14
2018-02-19T16:18:34.918Z,101936.78
2018-02-19T16:21:01.462Z,101936.78
2018-02-19T16:23:27.691Z,101938.56
2018-02-19T16:25:53.846Z,101937.69
2018-02-19T16:28:20.339Z,101947.80
2018-02-19T16:30:46.517Z,101937.32
2018-02-19T16:33:12.708Z,101942.17
2018-02-19T16:35:38.929Z,101944.38
2018-02-19T16:38:05.193Z,101943.08
2018-02-19T16:40:31.395Z,101948.36
2018-02-19T16:42:57.920Z,101945.73
2018-02-19T16:45:24.183Z,101944.88
2018-02-19T16:47:50.358Z,101943.16
2018-02-19T16:50:16.656Z,101942.29
2018-02-19T16:52:42.940Z,101947.12
2018-02-19T16:55:09.121Z,101950.64
2018-02-19T16:57:35.400Z,101947.59
2018-02-19T17:00:01.642Z,101956.37
2018-02-19T17:02:28.142Z,101952.84
2018-02-19T17:04:54.358Z,101951.53
2018-02-19T17:07:20.593Z,101953.77
2018-02-19T17:09:46.772Z,101955.08
2018-02-19T17:12:12.966Z,101953.78
2018-02-19T17:14:39.396Z,101966.03
2018-02-19T17:17:05.615Z,101966.03
2018-02-19T17:19:31.810Z,101966.02
2018-02-19T17:21:58.099Z,101969.54
2018-02-19T17:24:24.269Z,101969.09
2018-02-19T17:26:50.455Z,101972.59
2018-02-19T17:29:16.962Z,101977.84
2018-02-19T17:31:43.151Z,101968.23
2018-02-19T17:34:09.403Z,101975.66
2018-02-19T17:36:35.657Z,101975.67
2018-02-19T17:39:01.867Z,101982.22
2018-02-19T17:41:28.093Z,101981.37
2018-02-19T17:43:54.353Z,101979.59
2018-02-19T17:46:20.523Z,101974.81
2018-02-19T17:48:46.741Z,101969.99
2018-02-19T17:51:13.031Z,101967.37
2018-02-19T17:53:39.229Z,101966.08
2018-02-19T17:56:05.673Z,101959.54
2018-02-19T17:58:31.892Z,101967.82
2018-02-19T18:00:58.097Z,101966.95
2018-02-19T18:03:24.282Z,101966.52
2018-02-19T18:05:50.541Z,101956.91
2018-02-19T18:08:16.757Z,101963.45
2018-02-19T18:10:42.942Z,101963.02
2018-02-19T18:13:09.587Z,101954.70
2018-02-19T18:15:35.750Z,101953.81
2018-02-19T18:18:01.937Z,101952.50
2018-02-19T18:20:28.148Z,101948.98
2018-02-19T18:22:54.412Z,101955.55
2018-02-19T18:25:20.609Z,101954.27
2018-02-19T18:27:46.812Z,101950.34
2018-02-19T18:30:13.022Z,101953.41
2018-02-19T18:32:39.261Z,101949.48
2018-02-19T18:35:05.840Z,101960.39
2018-02-19T18:37:32.106Z,101946.41
2018-02-19T18:39:58.383Z,101950.77
2018-02-19T18:42:24.581Z,101949.45
2018-02-19T18:44:50.815Z,101944.23
2018-02-19T18:47:16.985Z,101951.22
2018-02-19T18:49:43.165Z,101961.72
2018-02-19T18:52:09.373Z,101962.14
2018-02-19T18:54:35.565Z,101960.86
2018-02-19T18:57:01.789Z,101958.66
2018-02-19T18:59:28.189Z,101966.97
2018-02-19T19:01:54.393Z,101966.97
2018-02-19T19:04:20.555Z,101966.08
2018-02-19T19:06:47.117Z,101967.41
2018-02-19T19:09:25.508Z,101970.48
2018-02-19T19:11:51.735Z,101966.98
2018-02-19T19:14:18.187Z,101969.59
2018-02-19T19:16:44.722Z,101971.37
2018-02-19T19:19:10.952Z,101972.25
2018-02-19T19:21:37.125Z,101969.17
2018-02-19T19:24:03.585Z,101971.37
2018-02-19T19:26:30.046Z,101972.23
2018-02-19T19:28:56.348Z,101966.56
2018-02-19T19:31:22.545Z,101964.39
2018-02-19T19:33:49.033Z,101967.44
2018-02-19T19:36:15.213Z,101961.77
2018-02-19T19:38:41.798Z,101960.02
2018-02-19T19:41:08.055Z,101961.30
2018-02-19T19:43:34.562Z,101963.50
2018-02-19T19:46:00.757Z,101961.75
2018-02-19T19:48:27.037Z,101955.17
2018-02-19T19:50:53.284Z,101956.03
2018-02-19T19:53:19.481Z,101960.83
2018-02-19T19:55:45.692Z,101962.09
2018-02-19T19:58:11.887Z,101955.94
2018-02-19T20:00:38.168Z,101966.84
2018-02-19T20:03:04.344Z,101966.00
2018-02-19T20:05:30.821Z,101960.30
2018-02-19T20:07:57.083Z,101955.06
2018-02-19T20:10:23.357Z,101950.66
2018-02-19T20:12:49.576Z,101951.09
2018-02-19T20:15:16.033Z,101948.50
2018-02-19T20:17:42.219Z,101949.81
2018-02-19T20:20:08.459Z,101947.64
2018-02-19T20:22:34.638Z,101957.27
2018-02-19T20:25:00.888Z,101948.09
2018-02-19T20:27:27.100Z,101953.76
2018-02-19T20:29:53.277Z,101957.25
2018-02-19T20:32:19.470Z,101964.25
2018-02-19T20:34:45.688Z,101962.05
2018-02-19T20:37:11.901Z,101961.63
2018-02-19T20:39:38.058Z,101964.25
2018-02-19T20:42:04.271Z,101967.28
2018-02-19T20:44:30.779Z,101969.05
2018-02-19T20:46:57.003Z,101963.36
2018-02-19T20:49:23.170Z,101969.49
2018-02-19T20:51:49.455Z,101963.83
2018-02-19T20:54:15.665Z,101967.34
2018-02-19T20:56:41.835Z,101966.87
2018-02-19T20:59:08.086Z,101971.70
2018-02-19T21:01:34.584Z,101972.13
2018-02-19T21:04:01.019Z,101973.47
2018-02-19T21:06:27.254Z,101965.16
2018-02-19T21:08:53.437Z,101973.00
2018-02-19T21:11:19.623Z,101973.45
2018-02-19T21:13:45.830Z,101969.94
2018-02-19T21:16:12.054Z,101968.17
2018-02-19T21:18:38.535Z,101971.22
2018-02-19T21:21:04.719Z,101976.03
2018-02-19T21:23:30.936Z,101975.17
2018-02-19T21:25:57.127Z,101974.71
2018-02-19T21:28:23.330Z,101973.40
2018-02-19T21:30:49.499Z,101972.95
2018-02-19T21:33:15.951Z,101971.69
2018-02-19T21:35:42.136Z,101970.38
2018-02-19T21:38:08.355Z,101971.27
2018-02-19T21:40:34.563Z,101969.94
2018-02-19T21:43:00.776Z,101969.96
2018-02-19T21:45:27.085Z,101967.36
2018-02-19T21:47:53.297Z,101968.63
2018-02-19T21:50:19.598Z,101965.16
2018-02-19T21:52:45.753Z,101967.76
2018-02-19T21:55:11.980Z,101970.38
2018-02-19T21:57:38.170Z,101968.63
2018-02-19T22:00:04.345Z,101968.63
2018-02-19T22:02:30.536Z,101973.92
2018-02-19T22:04:56.714Z,101976.53
2018-02-19T22:07:22.913Z,101974.37
2018-02-19T22:09:49.099Z,101965.15
2018-02-19T22:12:15.401Z,101967.81
2018-02-19T22:14:41.572Z,101972.61
2018-02-19T22:17:07.762Z,101964.73
2018-02-19T22:19:33.970Z,101960.38
2018-02-19T22:22:00.203Z,101958.17
2018-02-19T22:24:26.374Z,101960.38
2018-02-19T22:26:52.560Z,101956.88
2018-02-19T22:29:18.758Z,101957.25
2018-02-19T22:31:44.947Z,101948.50
2018-02-19T22:34:11.565Z,101954.14
2018-02-19T22:36:37.760Z,101954.98
2018-02-19T22:39:04.012Z,101960.70
2018-02-19T22:41:30.260Z,101957.21
2018-02-19T22:43:56.434Z,101955.48
2018-02-19T22:46:22.623Z,101959.83
2018-02-19T22:48:48.874Z,101958.09
2018-02-19T22:51:15.157Z,101960.30
2018-02-19T22:53:41.349Z,101965.11
2018-02-19T22:56:07.557Z,101962.94
2018-02-19T22:58:39.714Z,101963.35
2018-02-19T23:01:05.990Z,101960.71
2018-02-19T23:03:32.183Z,101961.15
2018-02-19T23:05:58.383Z,101966.38
2018-02-19T23:08:24.611Z,101955.04
2018-02-19T23:10:50.781Z,101955.05
2018-02-19T23:13:17.038Z,101956.38
2018-02-19T23:15:43.675Z,101958.11
2018-02-19T23:18:09.932Z,101958.13
2018-02-19T23:20:36.135Z,101959.47
2018-02-19T23:23:02.443Z,101966.03
2018-02-19T23:25:28.820Z,101964.27
2018-02-19T23:27:55.389Z,101973.03
2018-02-19T23:30:21.856Z,101965.16
2018-02-19T23:32:48.363Z,101969.52
2018-02-19T23:35:14.634Z,101973.48
2018-02-19T23:37:40.820Z,101976.95
2018-02-19T23:40:07.342Z,101969.95
2018-02-19T23:42:33.647Z,101975.63
2018-02-19T23:44:59.816Z,101973.89
2018-02-19T23:47:26.019Z,101972.14
2018-02-19T23:49:52.284Z,101974.74
2018-02-19T23:52:18.640Z,101977.81
2018-02-19T23:54:44.989Z,101983.06
2018-02-19T23:57:11.448Z,101973.45
2018-02-19T23:59:37.729Z,101969.08
